sensor_id;sensor_type;location;lat;lon;timestamp;P1;P2;P0
80555;PMS5003;69889;55.040;73.076;2023-08-30T00:01:15;4.75;4.00;3.00
80555;PMS5003;69889;55.040;73.076;2023-08-30T00:03:41;5.00;5.00;4.00
80555;PMS5003;69889;55.040;73.076;2023-08-30T00:06:08;6.00;5.00;3.00
80555;PMS5003;69889;55.040;73.076;2023-08-30T00:08:35;5.50;4.00;3.00
80555;PMS5003;69889;55.040;73.076;2023-08-30T00:11:01;5.00;4.00;3.00
80555;PMS5003;69889;55.040;73.076;2023-08-30T00:13:30;5.00;5.00;3.00
80555;PMS5003;69889;55.040;73.076;2023-08-30T00:16:00;4.50;4.00;3.00
80555;PMS5003;69889;55.040;73.076;2023-08-30T00:18:28;5.00;4.75;3.00
80555;PMS5003;69889;55.040;73.076;2023-08-30T00:20:55;5.00;4.00;3.00
80555;PMS5003;69889;55.040;73.076;2023-08-30T00:23:23;4.75;4.00;2.00
80555;PMS5003;69889;55.040;73.076;2023-08-30T00:25:49;5.50;5.00;3.00
80555;PMS5003;69889;55.040;73.076;2023-08-30T00:28:16;5.00;4.00;2.50
80555;PMS5003;69889;55.040;73.076;2023-08-30T00:30:43;5.00;5.00;3.00
80555;PMS5003;69889;55.040;73.076;2023-08-30T00:33:10;5.00;4.00;2.75
80555;PMS5003;69889;55.040;73.076;2023-08-30T00:35:38;4.00;3.50;2.00
80555;PMS5003;69889;55.040;73.076;2023-08-30T00:38:04;4.00;4.00;2.75
80555;PMS5003;69889;55.040;73.076;2023-08-30T00:40:37;6.75;5.75;3.75
80555;PMS5003;69889;55.040;73.076;2023-08-30T00:43:03;5.00;4.00;3.00
80555;PMS5003;69889;55.040;73.076;2023-08-30T00:45:30;5.00;5.00;3.00
80555;PMS5003;69889;55.040;73.076;2023-08-30T00:47:57;5.50;5.00;3.00
80555;PMS5003;69889;55.040;73.076;2023-08-30T00:50:24;5.00;5.00;3.00
80555;PMS5003;69889;55.040;73.076;2023-08-30T00:52:51;5.00;4.25;3.00
80555;PMS5003;69889;55.040;73.076;2023-08-30T00:55:18;5.00;5.00;4.00
80555;PMS5003;69889;55.040;73.076;2023-08-30T00:57:44;6.00;5.00;3.00
80555;PMS5003;69889;55.040;73.076;2023-08-30T01:00:11;6.00;6.00;3.00
80555;PMS5003;69889;55.040;73.076;2023-08-30T01:02:38;5.00;5.00;3.00
80555;PMS5003;69889;55.040;73.076;2023-08-30T01:05:05;5.00;4.00;3.00
80555;PMS5003;69889;55.040;73.076;2023-08-30T01:07:32;6.00;5.00;3.00
80555;PMS5003;69889;55.040;73.076;2023-08-30T01:09:58;4.00;3.00;2.00
80555;PMS5003;69889;55.040;73.076;2023-08-30T01:12:29;4.00;4.00;3.00
80555;PMS5003;69889;55.040;73.076;2023-08-30T01:15:02;5.00;4.00;3.00
80555;PMS5003;69889;55.040;73.076;2023-08-30T01:17:32;5.75;5.00;3.00
80555;PMS5003;69889;55.040;73.076;2023-08-30T01:20:00;6.00;5.00;3.00
80555;PMS5003;69889;55.040;73.076;2023-08-30T01:22:46;5.75;5.00;3.00
80555;PMS5003;69889;55.040;73.076;2023-08-30T01:25:39;5.00;4.00;3.00
80555;PMS5003;69889;55.040;73.076;2023-08-30T01:28:22;5.00;4.75;3.50
80555;PMS5003;69889;55.040;73.076;2023-08-30T01:30:53;6.00;5.00;4.00
80555;PMS5003;69889;55.040;73.076;2023-08-30T01:33:21;6.00;5.00;3.00
80555;PMS5003;69889;55.040;73.076;2023-08-30T01:35:48;6.00;5.00;3.00
80555;PMS5003;69889;55.040;73.076;2023-08-30T01:38:15;7.00;6.00;4.00
80555;PMS5003;69889;55.040;73.076;2023-08-30T01:40:43;7.00;6.00;4.00
80555;PMS5003;69889;55.040;73.076;2023-08-30T01:43:10;8.00;6.00;3.00
80555;PMS5003;69889;55.040;73.076;2023-08-30T01:45:41;6.00;5.00;3.00
80555;PMS5003;69889;55.040;73.076;2023-08-30T01:48:13;6.00;5.00;3.00
80555;PMS5003;69889;55.040;73.076;2023-08-30T01:50:42;6.00;5.00;3.00
80555;PMS5003;69889;55.040;73.076;2023-08-30T01:53:12;6.00;5.00;3.00
80555;PMS5003;69889;55.040;73.076;2023-08-30T01:55:40;6.25;5.25;3.00
80555;PMS5003;69889;55.040;73.076;2023-08-30T01:58:07;6.00;5.00;3.00
80555;PMS5003;69889;55.040;73.076;2023-08-30T02:00:37;6.25;5.00;3.00
80555;PMS5003;69889;55.040;73.076;2023-08-30T02:03:10;5.00;5.00;3.00
80555;PMS5003;69889;55.040;73.076;2023-08-30T02:05:39;8.00;6.00;3.50
80555;PMS5003;69889;55.040;73.076;2023-08-30T02:08:11;6.00;5.50;4.00
80555;PMS5003;69889;55.040;73.076;2023-08-30T02:10:41;7.00;5.00;3.25
80555;PMS5003;69889;55.040;73.076;2023-08-30T02:13:08;5.50;5.00;3.00
80555;PMS5003;69889;55.040;73.076;2023-08-30T02:15:37;5.50;4.25;3.00
80555;PMS5003;69889;55.040;73.076;2023-08-30T02:18:04;6.00;5.00;3.00
80555;PMS5003;69889;55.040;73.076;2023-08-30T02:20:31;6.75;5.00;3.25
80555;PMS5003;69889;55.040;73.076;2023-08-30T02:22:58;6.00;5.00;3.00
80555;PMS5003;69889;55.040;73.076;2023-08-30T02:25:25;7.00;6.00;3.00
80555;PMS5003;69889;55.040;73.076;2023-08-30T02:27:54;4.00;4.00;3.00
80555;PMS5003;69889;55.040;73.076;2023-08-30T02:30:21;4.00;4.00;2.50
80555;PMS5003;69889;55.040;73.076;2023-08-30T02:32:47;4.00;4.00;3.00
80555;PMS5003;69889;55.040;73.076;2023-08-30T02:35:16;5.00;4.75;3.00
80555;PMS5003;69889;55.040;73.076;2023-08-30T02:37:43;4.75;4.50;3.00
80555;PMS5003;69889;55.040;73.076;2023-08-30T02:40:18;5.00;4.00;3.00
80555;PMS5003;69889;55.040;73.076;2023-08-30T02:42:45;6.00;5.00;3.00
80555;PMS5003;69889;55.040;73.076;2023-08-30T02:45:11;5.25;5.00;3.00
80555;PMS5003;69889;55.040;73.076;2023-08-30T02:47:38;5.00;4.75;3.00
80555;PMS5003;69889;55.040;73.076;2023-08-30T02:50:04;5.00;4.75;3.00
80555;PMS5003;69889;55.040;73.076;2023-08-30T02:52:33;4.25;4.00;3.00
80555;PMS5003;69889;55.040;73.076;2023-08-30T02:55:00;5.00;4.00;3.00
80555;PMS5003;69889;55.040;73.076;2023-08-30T02:57:27;6.00;5.00;3.00
80555;PMS5003;69889;55.040;73.076;2023-08-30T02:59:54;5.00;5.00;3.00
80555;PMS5003;69889;55.040;73.076;2023-08-30T03:02:21;6.00;5.00;3.00
80555;PMS5003;69889;55.040;73.076;2023-08-30T03:04:47;6.00;5.00;3.00
80555;PMS5003;69889;55.040;73.076;2023-08-30T03:07:14;5.00;5.00;3.00
80555;PMS5003;69889;55.040;73.076;2023-08-30T03:09:40;5.00;5.00;3.75
80555;PMS5003;69889;55.040;73.076;2023-08-30T03:12:07;5.75;5.00;3.00
80555;PMS5003;69889;55.040;73.076;2023-08-30T03:14:35;5.00;5.00;3.00
80555;PMS5003;69889;55.040;73.076;2023-08-30T03:17:02;5.00;4.25;3.00
80555;PMS5003;69889;55.040;73.076;2023-08-30T03:19:28;6.00;5.00;3.00
80555;PMS5003;69889;55.040;73.076;2023-08-30T03:21:55;5.00;5.00;3.00
80555;PMS5003;69889;55.040;73.076;2023-08-30T03:24:22;5.00;5.00;3.00
80555;PMS5003;69889;55.040;73.076;2023-08-30T03:26:48;4.00;4.00;3.00
80555;PMS5003;69889;55.040;73.076;2023-08-30T03:29:18;6.00;5.00;3.75
80555;PMS5003;69889;55.040;73.076;2023-08-30T03:31:47;5.00;5.00;3.00
80555;PMS5003;69889;55.040;73.076;2023-08-30T03:34:13;5.00;5.00;3.00
80555;PMS5003;69889;55.040;73.076;2023-08-30T03:36:40;6.00;5.00;4.00
80555;PMS5003;69889;55.040;73.076;2023-08-30T03:39:09;5.00;5.00;3.00
80555;PMS5003;69889;55.040;73.076;2023-08-30T03:41:35;4.00;4.00;3.00
80555;PMS5003;69889;55.040;73.076;2023-08-30T03:44:03;5.75;5.00;3.00
80555;PMS5003;69889;55.040;73.076;2023-08-30T03:46:30;6.00;5.00;4.00
80555;PMS5003;69889;55.040;73.076;2023-08-30T03:48:56;6.00;5.00;3.00
80555;PMS5003;69889;55.040;73.076;2023-08-30T03:51:23;7.00;6.00;4.00
80555;PMS5003;69889;55.040;73.076;2023-08-30T03:53:49;7.00;6.00;4.00
80555;PMS5003;69889;55.040;73.076;2023-08-30T03:56:16;6.00;5.00;3.00
80555;PMS5003;69889;55.040;73.076;2023-08-30T03:58:42;6.00;5.00;4.00
80555;PMS5003;69889;55.040;73.076;2023-08-30T04:01:11;8.00;7.25;4.00
80555;PMS5003;69889;55.040;73.076;2023-08-30T04:03:38;6.75;6.00;4.00
80555;PMS5003;69889;55.040;73.076;2023-08-30T04:06:05;7.00;6.00;4.00
80555;PMS5003;69889;55.040;73.076;2023-08-30T04:08:31;5.00;4.00;3.00
80555;PMS5003;69889;55.040;73.076;2023-08-30T04:10:58;5.00;5.00;3.50
80555;PMS5003;69889;55.040;73.076;2023-08-30T04:13:25;6.50;6.00;4.00
80555;PMS5003;69889;55.040;73.076;2023-08-30T04:15:53;5.50;5.00;3.00
80555;PMS5003;69889;55.040;73.076;2023-08-30T04:18:19;6.00;6.00;4.00
80555;PMS5003;69889;55.040;73.076;2023-08-30T04:20:46;6.00;5.50;4.00
80555;PMS5003;69889;55.040;73.076;2023-08-30T04:23:13;6.25;5.00;4.00
80555;PMS5003;69889;55.040;73.076;2023-08-30T04:25:40;6.00;5.00;4.00
80555;PMS5003;69889;55.040;73.076;2023-08-30T04:28:07;8.00;7.00;4.00
80555;PMS5003;69889;55.040;73.076;2023-08-30T04:30:35;10.00;8.25;5.00
80555;PMS5003;69889;55.040;73.076;2023-08-30T04:33:02;7.00;7.00;5.00
80555;PMS5003;69889;55.040;73.076;2023-08-30T04:35:29;9.00;7.50;5.00
80555;PMS5003;69889;55.040;73.076;2023-08-30T04:38:00;7.00;6.00;4.00
80555;PMS5003;69889;55.040;73.076;2023-08-30T04:40:27;6.00;5.00;3.75
80555;PMS5003;69889;55.040;73.076;2023-08-30T04:42:54;6.00;5.00;4.00
80555;PMS5003;69889;55.040;73.076;2023-08-30T04:45:21;7.00;6.00;4.00
80555;PMS5003;69889;55.040;73.076;2023-08-30T04:47:48;6.00;6.00;3.75
80555;PMS5003;69889;55.040;73.076;2023-08-30T04:50:15;6.00;6.00;3.50
80555;PMS5003;69889;55.040;73.076;2023-08-30T04:52:43;5.25;5.00;4.00
80555;PMS5003;69889;55.040;73.076;2023-08-30T04:55:10;5.00;5.00;4.00
80555;PMS5003;69889;55.040;73.076;2023-08-30T04:57:36;6.00;5.00;4.00
80555;PMS5003;69889;55.040;73.076;2023-08-30T05:00:04;8.00;7.00;4.00
80555;PMS5003;69889;55.040;73.076;2023-08-30T05:02:32;7.00;6.00;4.00
80555;PMS5003;69889;55.040;73.076;2023-08-30T05:05:05;4.75;4.00;3.00
80555;PMS5003;69889;55.040;73.076;2023-08-30T05:07:33;6.00;6.00;4.00
80555;PMS5003;69889;55.040;73.076;2023-08-30T05:09:59;6.00;5.25;4.00
80555;PMS5003;69889;55.040;73.076;2023-08-30T05:12:26;7.00;6.00;4.00
80555;PMS5003;69889;55.040;73.076;2023-08-30T05:14:53;5.00;5.00;3.00
80555;PMS5003;69889;55.040;73.076;2023-08-30T05:17:26;5.00;5.00;3.00
80555;PMS5003;69889;55.040;73.076;2023-08-30T05:19:55;6.00;5.25;4.00
80555;PMS5003;69889;55.040;73.076;2023-08-30T05:22:22;5.00;4.50;3.00
80555;PMS5003;69889;55.040;73.076;2023-08-30T05:24:48;5.00;4.75;3.00
80555;PMS5003;69889;55.040;73.076;2023-08-30T05:27:15;5.00;4.00;3.00
80555;PMS5003;69889;55.040;73.076;2023-08-30T05:29:44;6.00;5.00;3.00
80555;PMS5003;69889;55.040;73.076;2023-08-30T05:32:10;6.00;6.00;4.00
80555;PMS5003;69889;55.040;73.076;2023-08-30T05:34:56;5.00;5.00;3.50
80555;PMS5003;69889;55.040;73.076;2023-08-30T05:37:41;5.00;4.00;3.00
80555;PMS5003;69889;55.040;73.076;2023-08-30T05:40:33;5.00;5.00;3.00
80555;PMS5003;69889;55.040;73.076;2023-08-30T05:43:00;6.00;5.00;3.00
80555;PMS5003;69889;55.040;73.076;2023-08-30T05:45:26;6.00;5.00;3.00
80555;PMS5003;69889;55.040;73.076;2023-08-30T05:47:53;5.00;4.00;3.00
80555;PMS5003;69889;55.040;73.076;2023-08-30T05:50:20;6.00;5.00;3.00
80555;PMS5003;69889;55.040;73.076;2023-08-30T05:52:46;6.00;5.00;3.00
80555;PMS5003;69889;55.040;73.076;2023-08-30T05:55:14;6.00;5.00;3.00
80555;PMS5003;69889;55.040;73.076;2023-08-30T05:57:40;5.00;4.25;3.25
80555;PMS5003;69889;55.040;73.076;2023-08-30T06:00:07;4.00;4.00;3.00
80555;PMS5003;69889;55.040;73.076;2023-08-30T06:02:40;5.00;4.00;3.00
80555;PMS5003;69889;55.040;73.076;2023-08-30T06:05:07;4.00;4.00;3.00
80555;PMS5003;69889;55.040;73.076;2023-08-30T06:07:33;3.50;3.00;2.00
80555;PMS5003;69889;55.040;73.076;2023-08-30T06:10:00;4.00;4.00;3.00
80555;PMS5003;69889;55.040;73.076;2023-08-30T06:12:27;6.00;5.75;4.00
80555;PMS5003;69889;55.040;73.076;2023-08-30T06:14:53;6.00;5.00;3.00
80555;PMS5003;69889;55.040;73.076;2023-08-30T06:17:20;5.00;4.75;3.00
80555;PMS5003;69889;55.040;73.076;2023-08-30T06:19:47;4.50;4.00;3.00
80555;PMS5003;69889;55.040;73.076;2023-08-30T06:22:14;8.00;7.25;4.75
80555;PMS5003;69889;55.040;73.076;2023-08-30T06:24:40;7.00;6.00;4.00
80555;PMS5003;69889;55.040;73.076;2023-08-30T06:27:07;5.00;4.00;3.00
80555;PMS5003;69889;55.040;73.076;2023-08-30T06:29:34;5.00;5.00;3.00
80555;PMS5003;69889;55.040;73.076;2023-08-30T06:32:03;5.00;5.00;3.00
80555;PMS5003;69889;55.040;73.076;2023-08-30T06:34:30;5.00;4.50;3.00
80555;PMS5003;69889;55.040;73.076;2023-08-30T06:36:57;6.00;5.00;3.00
80555;PMS5003;69889;55.040;73.076;2023-08-30T06:39:24;7.00;6.00;3.75
80555;PMS5003;69889;55.040;73.076;2023-08-30T06:41:51;7.00;6.00;3.00
80555;PMS5003;69889;55.040;73.076;2023-08-30T06:44:19;5.50;5.00;3.00
80555;PMS5003;69889;55.040;73.076;2023-08-30T06:46:48;6.00;5.25;4.00
80555;PMS5003;69889;55.040;73.076;2023-08-30T06:49:14;7.00;6.00;3.75
80555;PMS5003;69889;55.040;73.076;2023-08-30T06:51:41;8.25;7.00;4.00
80555;PMS5003;69889;55.040;73.076;2023-08-30T06:54:07;8.00;6.75;4.00
80555;PMS5003;69889;55.040;73.076;2023-08-30T06:56:34;7.00;6.00;3.00
80555;PMS5003;69889;55.040;73.076;2023-08-30T06:59:00;5.00;4.50;3.00
80555;PMS5003;69889;55.040;73.076;2023-08-30T07:01:27;6.75;5.50;3.00
80555;PMS5003;69889;55.040;73.076;2023-08-30T07:03:53;5.00;5.00;3.00
80555;PMS5003;69889;55.040;73.076;2023-08-30T07:06:20;5.00;4.75;3.00
80555;PMS5003;69889;55.040;73.076;2023-08-30T07:08:47;6.00;5.50;3.00
80555;PMS5003;69889;55.040;73.076;2023-08-30T07:11:13;7.00;6.00;4.00
80555;PMS5003;69889;55.040;73.076;2023-08-30T07:13:42;6.00;5.00;4.00
80555;PMS5003;69889;55.040;73.076;2023-08-30T07:16:09;7.00;6.00;3.00
80555;PMS5003;69889;55.040;73.076;2023-08-30T07:18:36;5.00;5.00;3.00
80555;PMS5003;69889;55.040;73.076;2023-08-30T07:21:03;6.00;6.00;4.00
80555;PMS5003;69889;55.040;73.076;2023-08-30T07:23:29;8.00;6.75;4.50
80555;PMS5003;69889;55.040;73.076;2023-08-30T07:25:56;7.75;7.00;5.00
80555;PMS5003;69889;55.040;73.076;2023-08-30T07:28:22;7.00;6.00;4.00
80555;PMS5003;69889;55.040;73.076;2023-08-30T07:30:49;8.00;7.00;5.00
80555;PMS5003;69889;55.040;73.076;2023-08-30T07:33:16;7.00;6.25;4.00
80555;PMS5003;69889;55.040;73.076;2023-08-30T07:35:43;7.50;7.00;4.00
80555;PMS5003;69889;55.040;73.076;2023-08-30T07:38:09;6.00;6.00;4.00
80555;PMS5003;69889;55.040;73.076;2023-08-30T07:40:36;7.00;6.00;4.00
80555;PMS5003;69889;55.040;73.076;2023-08-30T07:43:02;7.00;6.00;4.00
80555;PMS5003;69889;55.040;73.076;2023-08-30T07:45:30;7.00;6.00;4.00
80555;PMS5003;69889;55.040;73.076;2023-08-30T07:47:57;5.25;5.25;4.00
80555;PMS5003;69889;55.040;73.076;2023-08-30T07:50:23;8.00;7.00;4.00
80555;PMS5003;69889;55.040;73.076;2023-08-30T07:52:51;7.00;6.00;4.00
80555;PMS5003;69889;55.040;73.076;2023-08-30T07:55:18;6.00;6.00;4.00
80555;PMS5003;69889;55.040;73.076;2023-08-30T07:57:44;5.25;5.00;4.00
80555;PMS5003;69889;55.040;73.076;2023-08-30T08:00:12;5.00;4.25;3.00
80555;PMS5003;69889;55.040;73.076;2023-08-30T08:02:39;6.00;6.00;3.00
80555;PMS5003;69889;55.040;73.076;2023-08-30T08:05:06;7.00;7.00;4.00
80555;PMS5003;69889;55.040;73.076;2023-08-30T08:07:32;6.00;5.75;4.00
80555;PMS5003;69889;55.040;73.076;2023-08-30T08:09:59;7.00;7.00;5.00
80555;PMS5003;69889;55.040;73.076;2023-08-30T08:12:26;6.00;6.00;4.00
80555;PMS5003;69889;55.040;73.076;2023-08-30T08:14:52;6.25;6.00;4.25
80555;PMS5003;69889;55.040;73.076;2023-08-30T08:17:19;7.25;6.25;4.00
80555;PMS5003;69889;55.040;73.076;2023-08-30T08:19:45;6.00;6.00;4.00
80555;PMS5003;69889;55.040;73.076;2023-08-30T08:22:12;8.00;7.00;4.00
80555;PMS5003;69889;55.040;73.076;2023-08-30T08:24:39;7.00;5.00;3.50
80555;PMS5003;69889;55.040;73.076;2023-08-30T08:27:06;6.00;6.00;4.00
80555;PMS5003;69889;55.040;73.076;2023-08-30T08:29:32;6.00;5.00;3.50
80555;PMS5003;69889;55.040;73.076;2023-08-30T08:31:59;7.75;6.25;4.00
80555;PMS5003;69889;55.040;73.076;2023-08-30T08:34:26;7.00;6.00;4.25
80555;PMS5003;69889;55.040;73.076;2023-08-30T08:36:52;7.00;6.00;4.00
80555;PMS5003;69889;55.040;73.076;2023-08-30T08:39:19;9.25;8.00;5.00
80555;PMS5003;69889;55.040;73.076;2023-08-30T08:41:46;8.75;7.00;5.00
80555;PMS5003;69889;55.040;73.076;2023-08-30T08:44:13;8.00;7.00;5.00
80555;PMS5003;69889;55.040;73.076;2023-08-30T08:46:40;8.25;7.00;4.75
80555;PMS5003;69889;55.040;73.076;2023-08-30T08:49:13;6.00;6.00;4.00
80555;PMS5003;69889;55.040;73.076;2023-08-30T08:51:40;7.00;6.00;4.00
80555;PMS5003;69889;55.040;73.076;2023-08-30T08:54:09;8.25;7.00;4.25
80555;PMS5003;69889;55.040;73.076;2023-08-30T08:56:35;7.00;6.00;4.00
80555;PMS5003;69889;55.040;73.076;2023-08-30T08:59:03;7.00;7.00;5.00
80555;PMS5003;69889;55.040;73.076;2023-08-30T09:01:30;9.00;8.00;5.00
80555;PMS5003;69889;55.040;73.076;2023-08-30T09:03:59;7.50;6.75;5.00
80555;PMS5003;69889;55.040;73.076;2023-08-30T09:06:26;7.00;6.00;4.00
80555;PMS5003;69889;55.040;73.076;2023-08-30T09:08:55;8.00;7.00;4.00
80555;PMS5003;69889;55.040;73.076;2023-08-30T09:11:21;8.00;7.00;5.00
80555;PMS5003;69889;55.040;73.076;2023-08-30T09:13:48;9.00;8.00;5.00
80555;PMS5003;69889;55.040;73.076;2023-08-30T09:16:15;8.00;7.00;5.00
80555;PMS5003;69889;55.040;73.076;2023-08-30T09:18:42;8.00;8.00;5.75
80555;PMS5003;69889;55.040;73.076;2023-08-30T09:21:09;9.00;8.00;5.00
80555;PMS5003;69889;55.040;73.076;2023-08-30T09:23:36;9.00;8.00;6.00
80555;PMS5003;69889;55.040;73.076;2023-08-30T09:26:03;6.00;5.00;3.00
80555;PMS5003;69889;55.040;73.076;2023-08-30T09:28:41;5.00;4.00;3.00
80555;PMS5003;69889;55.040;73.076;2023-08-30T09:31:07;5.00;4.00;3.00
80555;PMS5003;69889;55.040;73.076;2023-08-30T09:33:35;5.00;4.00;3.00
80555;PMS5003;69889;55.040;73.076;2023-08-30T09:36:01;6.75;6.00;3.00
80555;PMS5003;69889;55.040;73.076;2023-08-30T09:38:28;7.50;6.75;4.00
80555;PMS5003;69889;55.040;73.076;2023-08-30T09:41:04;6.00;5.00;3.00
80555;PMS5003;69889;55.040;73.076;2023-08-30T09:43:34;5.00;5.00;3.00
80555;PMS5003;69889;55.040;73.076;2023-08-30T09:46:04;7.00;6.25;4.00
80555;PMS5003;69889;55.040;73.076;2023-08-30T09:48:33;8.00;7.75;5.00
80555;PMS5003;69889;55.040;73.076;2023-08-30T09:51:00;6.00;5.00;3.00
80555;PMS5003;69889;55.040;73.076;2023-08-30T09:53:29;8.00;7.00;5.00
80555;PMS5003;69889;55.040;73.076;2023-08-30T09:55:56;4.00;4.00;3.00
80555;PMS5003;69889;55.040;73.076;2023-08-30T09:58:24;5.25;4.25;3.00
80555;PMS5003;69889;55.040;73.076;2023-08-30T10:00:54;6.00;5.00;3.00
80555;PMS5003;69889;55.040;73.076;2023-08-30T10:03:20;7.00;6.75;4.75
80555;PMS5003;69889;55.040;73.076;2023-08-30T10:05:48;6.50;5.00;4.00
80555;PMS5003;69889;55.040;73.076;2023-08-30T10:08:14;7.50;7.00;5.00
80555;PMS5003;69889;55.040;73.076;2023-08-30T10:10:42;8.00;8.00;4.75
80555;PMS5003;69889;55.040;73.076;2023-08-30T10:13:09;7.00;6.00;3.00
80555;PMS5003;69889;55.040;73.076;2023-08-30T10:15:36;6.00;5.25;4.00
80555;PMS5003;69889;55.040;73.076;2023-08-30T10:18:07;7.00;7.00;3.50
80555;PMS5003;69889;55.040;73.076;2023-08-30T10:20:36;7.50;6.00;4.00
80555;PMS5003;69889;55.040;73.076;2023-08-30T10:23:04;7.00;6.00;4.75
80555;PMS5003;69889;55.040;73.076;2023-08-30T10:25:31;5.75;5.25;4.00
80555;PMS5003;69889;55.040;73.076;2023-08-30T10:27:59;7.00;7.00;4.00
80555;PMS5003;69889;55.040;73.076;2023-08-30T10:30:26;7.00;6.75;4.75
80555;PMS5003;69889;55.040;73.076;2023-08-30T10:32:53;6.75;5.25;4.00
80555;PMS5003;69889;55.040;73.076;2023-08-30T10:35:19;7.25;7.00;5.00
80555;PMS5003;69889;55.040;73.076;2023-08-30T10:37:56;8.50;7.50;5.00
80555;PMS5003;69889;55.040;73.076;2023-08-30T10:40:23;7.25;6.75;5.00
80555;PMS5003;69889;55.040;73.076;2023-08-30T10:43:04;8.00;7.00;5.00
80555;PMS5003;69889;55.040;73.076;2023-08-30T10:45:30;9.50;9.00;5.50
80555;PMS5003;69889;55.040;73.076;2023-08-30T10:47:58;7.00;6.25;5.00
80555;PMS5003;69889;55.040;73.076;2023-08-30T10:50:29;6.25;6.00;4.75
80555;PMS5003;69889;55.040;73.076;2023-08-30T10:52:59;7.00;6.00;4.00
80555;PMS5003;69889;55.040;73.076;2023-08-30T10:55:25;8.00;7.00;4.00
80555;PMS5003;69889;55.040;73.076;2023-08-30T10:57:59;7.00;6.00;4.00
80555;PMS5003;69889;55.040;73.076;2023-08-30T11:00:27;8.00;7.00;4.00
80555;PMS5003;69889;55.040;73.076;2023-08-30T11:02:54;12.00;11.00;8.00
80555;PMS5003;69889;55.040;73.076;2023-08-30T11:05:21;14.25;12.75;9.00
80555;PMS5003;69889;55.040;73.076;2023-08-30T11:07:49;14.00;12.00;7.50
80555;PMS5003;69889;55.040;73.076;2023-08-30T11:10:17;13.00;11.00;7.00
80555;PMS5003;69889;55.040;73.076;2023-08-30T11:12:44;11.00;10.00;7.00
80555;PMS5003;69889;55.040;73.076;2023-08-30T11:15:12;12.75;11.00;8.00
80555;PMS5003;69889;55.040;73.076;2023-08-30T11:17:44;14.00;12.00;8.00
80555;PMS5003;69889;55.040;73.076;2023-08-30T11:20:15;16.75;14.00;9.75
80555;PMS5003;69889;55.040;73.076;2023-08-30T11:22:43;17.75;15.75;10.25
80555;PMS5003;69889;55.040;73.076;2023-08-30T11:25:10;21.00;18.00;12.00
80555;PMS5003;69889;55.040;73.076;2023-08-30T11:27:40;23.00;21.00;14.00
80555;PMS5003;69889;55.040;73.076;2023-08-30T11:30:08;22.00;18.25;13.00
80555;PMS5003;69889;55.040;73.076;2023-08-30T11:32:35;17.25;16.00;11.25
80555;PMS5003;69889;55.040;73.076;2023-08-30T11:35:02;22.00;19.00;11.00
80555;PMS5003;69889;55.040;73.076;2023-08-30T11:37:31;20.00;17.00;10.00
80555;PMS5003;69889;55.040;73.076;2023-08-30T11:39:58;14.00;12.00;9.00
80555;PMS5003;69889;55.040;73.076;2023-08-30T11:42:25;15.00;14.00;8.00
80555;PMS5003;69889;55.040;73.076;2023-08-30T11:44:52;12.00;11.00;7.00
80555;PMS5003;69889;55.040;73.076;2023-08-30T11:47:20;11.25;10.00;7.00
80555;PMS5003;69889;55.040;73.076;2023-08-30T11:49:48;12.00;10.00;7.00
80555;PMS5003;69889;55.040;73.076;2023-08-30T11:52:16;12.25;11.00;7.00
80555;PMS5003;69889;55.040;73.076;2023-08-30T11:54:43;12.00;10.00;7.00
80555;PMS5003;69889;55.040;73.076;2023-08-30T11:57:10;10.00;9.00;7.00
80555;PMS5003;69889;55.040;73.076;2023-08-30T11:59:37;13.00;10.00;6.00
80555;PMS5003;69889;55.040;73.076;2023-08-30T12:02:04;12.00;11.25;8.00
80555;PMS5003;69889;55.040;73.076;2023-08-30T12:04:31;12.00;10.25;7.00
80555;PMS5003;69889;55.040;73.076;2023-08-30T12:06:57;12.00;11.00;7.00
80555;PMS5003;69889;55.040;73.076;2023-08-30T12:09:32;13.00;11.00;7.00
80555;PMS5003;69889;55.040;73.076;2023-08-30T12:12:05;12.00;10.75;7.00
80555;PMS5003;69889;55.040;73.076;2023-08-30T12:14:34;10.00;9.25;6.00
80555;PMS5003;69889;55.040;73.076;2023-08-30T12:17:01;13.00;11.00;7.00
80555;PMS5003;69889;55.040;73.076;2023-08-30T12:19:29;8.50;8.00;5.75
80555;PMS5003;69889;55.040;73.076;2023-08-30T12:22:02;14.00;11.00;7.00
80555;PMS5003;69889;55.040;73.076;2023-08-30T12:24:39;12.00;10.50;6.25
80555;PMS5003;69889;55.040;73.076;2023-08-30T12:27:07;11.00;10.00;7.00
80555;PMS5003;69889;55.040;73.076;2023-08-30T12:29:33;10.75;9.50;6.00
80555;PMS5003;69889;55.040;73.076;2023-08-30T12:32:00;10.00;9.00;6.00
80555;PMS5003;69889;55.040;73.076;2023-08-30T12:34:27;10.00;9.00;6.00
80555;PMS5003;69889;55.040;73.076;2023-08-30T12:36:53;9.00;8.00;5.00
80555;PMS5003;69889;55.040;73.076;2023-08-30T12:39:20;11.00;10.00;6.00
80555;PMS5003;69889;55.040;73.076;2023-08-30T12:41:46;21.00;18.50;11.50
80555;PMS5003;69889;55.040;73.076;2023-08-30T12:44:13;19.00;16.50;10.00
80555;PMS5003;69889;55.040;73.076;2023-08-30T12:46:40;13.00;12.00;8.00
80555;PMS5003;69889;55.040;73.076;2023-08-30T12:49:06;13.00;11.00;8.00
80555;PMS5003;69889;55.040;73.076;2023-08-30T12:51:33;12.00;11.00;7.00
80555;PMS5003;69889;55.040;73.076;2023-08-30T12:53:59;13.50;12.00;8.00
80555;PMS5003;69889;55.040;73.076;2023-08-30T12:56:26;15.75;13.00;8.00
80555;PMS5003;69889;55.040;73.076;2023-08-30T12:58:53;12.00;10.00;7.00
80555;PMS5003;69889;55.040;73.076;2023-08-30T13:01:19;12.00;10.00;6.75
80555;PMS5003;69889;55.040;73.076;2023-08-30T13:03:47;12.50;11.00;8.00
80555;PMS5003;69889;55.040;73.076;2023-08-30T13:06:13;11.00;10.00;6.00
80555;PMS5003;69889;55.040;73.076;2023-08-30T13:08:40;8.00;8.00;5.00
80555;PMS5003;69889;55.040;73.076;2023-08-30T13:11:07;8.00;7.00;5.00
80555;PMS5003;69889;55.040;73.076;2023-08-30T13:13:33;10.00;8.00;5.00
80555;PMS5003;69889;55.040;73.076;2023-08-30T13:16:00;9.00;8.50;5.75
80555;PMS5003;69889;55.040;73.076;2023-08-30T13:18:26;10.00;9.00;6.00
80555;PMS5003;69889;55.040;73.076;2023-08-30T13:20:56;10.00;9.75;6.00
80555;PMS5003;69889;55.040;73.076;2023-08-30T13:23:23;11.00;10.00;6.00
80555;PMS5003;69889;55.040;73.076;2023-08-30T13:25:49;12.00;10.00;7.00
80555;PMS5003;69889;55.040;73.076;2023-08-30T13:28:16;14.00;11.25;8.00
80555;PMS5003;69889;55.040;73.076;2023-08-30T13:30:45;11.00;9.75;6.00
80555;PMS5003;69889;55.040;73.076;2023-08-30T13:33:12;11.00;10.00;7.00
80555;PMS5003;69889;55.040;73.076;2023-08-30T13:35:39;13.00;11.00;8.00
80555;PMS5003;69889;55.040;73.076;2023-08-30T13:38:05;15.00;12.00;7.25
80555;PMS5003;69889;55.040;73.076;2023-08-30T13:40:32;14.50;12.75;8.00
80555;PMS5003;69889;55.040;73.076;2023-08-30T13:42:59;13.75;12.25;8.00
80555;PMS5003;69889;55.040;73.076;2023-08-30T13:45:25;13.00;11.75;8.00
80555;PMS5003;69889;55.040;73.076;2023-08-30T13:47:52;12.00;12.00;8.25
80555;PMS5003;69889;55.040;73.076;2023-08-30T13:50:21;14.75;13.25;8.00
80555;PMS5003;69889;55.040;73.076;2023-08-30T13:52:47;12.00;11.00;7.00
80555;PMS5003;69889;55.040;73.076;2023-08-30T13:55:14;15.00;13.25;8.50
80555;PMS5003;69889;55.040;73.076;2023-08-30T13:57:40;14.50;12.50;8.25
80555;PMS5003;69889;55.040;73.076;2023-08-30T14:00:07;12.00;11.00;7.75
80555;PMS5003;69889;55.040;73.076;2023-08-30T14:02:36;12.00;11.00;8.00
80555;PMS5003;69889;55.040;73.076;2023-08-30T14:05:03;12.00;11.00;8.00
80555;PMS5003;69889;55.040;73.076;2023-08-30T14:07:29;13.00;11.25;8.00